sensor_id;sensor_type;location;lat;lon;timestamp;P1;durP1;ratioP1;P2;durP2;ratioP2
78772;SDS011;68111;44.728;11.290;2023-06-04T00:00:26;18.00;;;9.20;;
78772;SDS011;68111;44.728;11.290;2023-06-04T00:02:52;12.63;;;9.02;;
78772;SDS011;68111;44.728;11.290;2023-06-04T00:05:19;14.13;;;9.70;;
78772;SDS011;68111;44.728;11.290;2023-06-04T00:07:47;16.17;;;9.80;;
78772;SDS011;68111;44.728;11.290;2023-06-04T00:10:14;15.85;;;10.25;;
78772;SDS011;68111;44.728;11.290;2023-06-04T00:12:41;13.38;;;9.35;;
78772;SDS011;68111;44.728;11.290;2023-06-04T00:15:08;14.13;;;9.75;;
78772;SDS011;68111;44.728;11.290;2023-06-04T00:17:35;14.65;;;10.43;;
78772;SDS011;68111;44.728;11.290;2023-06-04T00:20:02;16.92;;;10.30;;
78772;SDS011;68111;44.728;11.290;2023-06-04T00:22:29;15.63;;;10.55;;
78772;SDS011;68111;44.728;11.290;2023-06-04T00:24:55;13.90;;;10.63;;
78772;SDS011;68111;44.728;11.290;2023-06-04T00:27:22;20.02;;;10.75;;
78772;SDS011;68111;44.728;11.290;2023-06-04T00:29:49;13.48;;;10.13;;
78772;SDS011;68111;44.728;11.290;2023-06-04T00:32:15;14.07;;;10.32;;
78772;SDS011;68111;44.728;11.290;2023-06-04T00:34:42;15.48;;;10.23;;
78772;SDS011;68111;44.728;11.290;2023-06-04T00:37:09;20.85;;;11.02;;
78772;SDS011;68111;44.728;11.290;2023-06-04T00:39:36;17.20;;;10.77;;
78772;SDS011;68111;44.728;11.290;2023-06-04T00:42:02;18.65;;;10.77;;
78772;SDS011;68111;44.728;11.290;2023-06-04T00:44:29;15.73;;;11.18;;
78772;SDS011;68111;44.728;11.290;2023-06-04T00:46:57;14.77;;;10.30;;
78772;SDS011;68111;44.728;11.290;2023-06-04T00:49:24;16.25;;;9.93;;
78772;SDS011;68111;44.728;11.290;2023-06-04T00:51:51;15.50;;;10.02;;
78772;SDS011;68111;44.728;11.290;2023-06-04T00:54:19;15.80;;;10.65;;
78772;SDS011;68111;44.728;11.290;2023-06-04T00:56:47;17.55;;;9.90;;
78772;SDS011;68111;44.728;11.290;2023-06-04T00:59:14;15.85;;;9.82;;
78772;SDS011;68111;44.728;11.290;2023-06-04T01:01:55;18.25;;;10.05;;
78772;SDS011;68111;44.728;11.290;2023-06-04T01:04:50;15.95;;;9.70;;
78772;SDS011;68111;44.728;11.290;2023-06-04T01:07:13;16.20;;;9.40;;
78772;SDS011;68111;44.728;11.290;2023-06-04T01:09:43;13.63;;;8.70;;
78772;SDS011;68111;44.728;11.290;2023-06-04T01:12:11;14.82;;;9.57;;
78772;SDS011;68111;44.728;11.290;2023-06-04T01:14:38;16.80;;;10.15;;
78772;SDS011;68111;44.728;11.290;2023-06-04T01:25:38;16.13;;;7.35;;
78772;SDS011;68111;44.728;11.290;2023-06-04T01:28:06;13.10;;;8.98;;
78772;SDS011;68111;44.728;11.290;2023-06-04T01:30:38;13.02;;;8.88;;
78772;SDS011;68111;44.728;11.290;2023-06-04T01:33:13;12.48;;;8.30;;
78772;SDS011;68111;44.728;11.290;2023-06-04T01:35:41;18.10;;;10.07;;
78772;SDS011;68111;44.728;11.290;2023-06-04T01:38:08;14.65;;;9.65;;
78772;SDS011;68111;44.728;11.290;2023-06-04T01:40:35;17.70;;;10.30;;
78772;SDS011;68111;44.728;11.290;2023-06-04T01:43:02;16.77;;;10.88;;
78772;SDS011;68111;44.728;11.290;2023-06-04T01:45:30;14.57;;;10.35;;
78772;SDS011;68111;44.728;11.290;2023-06-04T01:47:56;16.58;;;10.50;;
78772;SDS011;68111;44.728;11.290;2023-06-04T01:50:23;12.43;;;9.57;;
78772;SDS011;68111;44.728;11.290;2023-06-04T01:52:50;13.52;;;8.80;;
78772;SDS011;68111;44.728;11.290;2023-06-04T01:55:17;16.67;;;9.77;;
78772;SDS011;68111;44.728;11.290;2023-06-04T01:57:44;17.10;;;10.05;;
78772;SDS011;68111;44.728;11.290;2023-06-04T02:00:12;13.18;;;8.95;;
78772;SDS011;68111;44.728;11.290;2023-06-04T02:02:40;14.38;;;8.93;;
78772;SDS011;68111;44.728;11.290;2023-06-04T02:05:09;13.70;;;8.80;;
78772;SDS011;68111;44.728;11.290;2023-06-04T02:07:37;13.50;;;7.55;;
78772;SDS011;68111;44.728;11.290;2023-06-04T02:10:06;14.65;;;8.48;;
78772;SDS011;68111;44.728;11.290;2023-06-04T02:12:35;13.45;;;9.00;;
78772;SDS011;68111;44.728;11.290;2023-06-04T02:15:03;15.00;;;9.20;;
78772;SDS011;68111;44.728;11.290;2023-06-04T02:17:30;14.40;;;8.88;;
78772;SDS011;68111;44.728;11.290;2023-06-04T02:19:59;14.13;;;8.93;;
78772;SDS011;68111;44.728;11.290;2023-06-04T02:22:25;17.45;;;10.07;;
78772;SDS011;68111;44.728;11.290;2023-06-04T02:24:52;18.27;;;10.00;;
78772;SDS011;68111;44.728;11.290;2023-06-04T02:27:19;16.17;;;8.93;;
78772;SDS011;68111;44.728;11.290;2023-06-04T02:29:46;15.75;;;8.25;;
78772;SDS011;68111;44.728;11.290;2023-06-04T02:32:13;15.02;;;9.43;;
78772;SDS011;68111;44.728;11.290;2023-06-04T02:34:40;13.23;;;8.38;;
78772;SDS011;68111;44.728;11.290;2023-06-04T02:37:06;16.05;;;9.88;;
78772;SDS011;68111;44.728;11.290;2023-06-04T02:39:33;16.20;;;9.32;;
78772;SDS011;68111;44.728;11.290;2023-06-04T02:42:00;18.63;;;10.43;;
78772;SDS011;68111;44.728;11.290;2023-06-04T02:44:27;17.45;;;10.25;;
78772;SDS011;68111;44.728;11.290;2023-06-04T02:46:56;18.13;;;10.55;;
78772;SDS011;68111;44.728;11.290;2023-06-04T02:49:23;16.30;;;10.68;;
78772;SDS011;68111;44.728;11.290;2023-06-04T02:51:50;16.20;;;10.07;;
78772;SDS011;68111;44.728;11.290;2023-06-04T02:54:17;15.32;;;10.35;;
78772;SDS011;68111;44.728;11.290;2023-06-04T02:56:43;14.50;;;9.25;;
78772;SDS011;68111;44.728;11.290;2023-06-04T02:59:10;14.88;;;10.05;;
78772;SDS011;68111;44.728;11.290;2023-06-04T03:01:40;16.42;;;11.00;;
78772;SDS011;68111;44.728;11.290;2023-06-04T03:04:07;15.68;;;10.38;;
78772;SDS011;68111;44.728;11.290;2023-06-04T03:06:36;19.02;;;10.45;;
78772;SDS011;68111;44.728;11.290;2023-06-04T03:09:07;13.98;;;9.90;;
78772;SDS011;68111;44.728;11.290;2023-06-04T03:11:33;17.10;;;9.80;;
78772;SDS011;68111;44.728;11.290;2023-06-04T03:14:00;17.88;;;10.55;;
78772;SDS011;68111;44.728;11.290;2023-06-04T03:16:27;14.68;;;10.23;;
78772;SDS011;68111;44.728;11.290;2023-06-04T03:18:55;15.95;;;10.35;;
78772;SDS011;68111;44.728;11.290;2023-06-04T03:21:23;16.75;;;10.20;;
78772;SDS011;68111;44.728;11.290;2023-06-04T03:23:51;17.10;;;10.15;;
78772;SDS011;68111;44.728;11.290;2023-06-04T03:26:18;16.55;;;10.85;;
78772;SDS011;68111;44.728;11.290;2023-06-04T03:28:45;16.98;;;10.23;;
78772;SDS011;68111;44.728;11.290;2023-06-04T03:31:16;17.50;;;11.60;;
78772;SDS011;68111;44.728;11.290;2023-06-04T03:33:42;19.75;;;10.85;;
78772;SDS011;68111;44.728;11.290;2023-06-04T03:36:09;14.27;;;10.60;;
78772;SDS011;68111;44.728;11.290;2023-06-04T03:38:36;17.10;;;10.68;;
78772;SDS011;68111;44.728;11.290;2023-06-04T03:41:03;18.23;;;11.02;;
78772;SDS011;68111;44.728;11.290;2023-06-04T03:43:30;15.95;;;10.10;;
78772;SDS011;68111;44.728;11.290;2023-06-04T03:48:27;15.60;;;10.88;;
78772;SDS011;68111;44.728;11.290;2023-06-04T03:50:54;19.17;;;10.73;;
78772;SDS011;68111;44.728;11.290;2023-06-04T03:53:21;17.25;;;10.45;;
78772;SDS011;68111;44.728;11.290;2023-06-04T03:55:48;17.23;;;11.88;;
78772;SDS011;68111;44.728;11.290;2023-06-04T03:58:16;19.13;;;10.93;;
78772;SDS011;68111;44.728;11.290;2023-06-04T04:00:47;17.92;;;11.07;;
78772;SDS011;68111;44.728;11.290;2023-06-04T04:03:13;17.33;;;10.43;;
78772;SDS011;68111;44.728;11.290;2023-06-04T04:05:42;17.27;;;10.13;;
78772;SDS011;68111;44.728;11.290;2023-06-04T04:08:09;15.75;;;10.95;;
78772;SDS011;68111;44.728;11.290;2023-06-04T04:10:36;19.35;;;10.93;;
78772;SDS011;68111;44.728;11.290;2023-06-04T04:13:04;14.57;;;10.95;;
78772;SDS011;68111;44.728;11.290;2023-06-04T04:15:34;17.08;;;10.52;;
78772;SDS011;68111;44.728;11.290;2023-06-04T04:18:02;18.98;;;10.65;;
78772;SDS011;68111;44.728;11.290;2023-06-04T04:20:30;15.85;;;10.15;;
78772;SDS011;68111;44.728;11.290;2023-06-04T04:23:02;15.88;;;10.27;;
78772;SDS011;68111;44.728;11.290;2023-06-04T04:25:29;15.65;;;9.93;;
78772;SDS011;68111;44.728;11.290;2023-06-04T04:28:00;14.65;;;10.13;;
78772;SDS011;68111;44.728;11.290;2023-06-04T04:30:29;14.60;;;9.85;;
78772;SDS011;68111;44.728;11.290;2023-06-04T04:32:55;15.75;;;10.40;;
78772;SDS011;68111;44.728;11.290;2023-06-04T04:35:28;16.58;;;9.68;;
78772;SDS011;68111;44.728;11.290;2023-06-04T04:37:58;16.42;;;9.88;;
78772;SDS011;68111;44.728;11.290;2023-06-04T04:40:25;15.45;;;11.07;;
78772;SDS011;68111;44.728;11.290;2023-06-04T04:42:53;15.13;;;10.10;;
78772;SDS011;68111;44.728;11.290;2023-06-04T04:45:21;18.17;;;10.73;;
78772;SDS011;68111;44.728;11.290;2023-06-04T04:47:50;14.20;;;9.88;;
78772;SDS011;68111;44.728;11.290;2023-06-04T04:50:20;16.20;;;10.23;;
78772;SDS011;68111;44.728;11.290;2023-06-04T04:52:46;15.93;;;10.75;;
78772;SDS011;68111;44.728;11.290;2023-06-04T04:55:13;17.73;;;10.13;;
78772;SDS011;68111;44.728;11.290;2023-06-04T04:57:43;15.77;;;10.70;;
78772;SDS011;68111;44.728;11.290;2023-06-04T05:00:10;15.45;;;10.77;;
78772;SDS011;68111;44.728;11.290;2023-06-04T05:02:41;17.73;;;10.63;;
78772;SDS011;68111;44.728;11.290;2023-06-04T05:05:09;16.95;;;11.27;;
78772;SDS011;68111;44.728;11.290;2023-06-04T05:07:37;18.20;;;12.32;;
78772;SDS011;68111;44.728;11.290;2023-06-04T05:10:04;18.02;;;11.30;;
78772;SDS011;68111;44.728;11.290;2023-06-04T05:12:33;17.50;;;11.38;;
78772;SDS011;68111;44.728;11.290;2023-06-04T05:15:01;16.27;;;11.55;;
78772;SDS011;68111;44.728;11.290;2023-06-04T05:17:29;19.98;;;13.00;;
78772;SDS011;68111;44.728;11.290;2023-06-04T05:20:01;18.23;;;12.05;;
78772;SDS011;68111;44.728;11.290;2023-06-04T05:22:35;18.83;;;12.70;;
78772;SDS011;68111;44.728;11.290;2023-06-04T05:25:03;19.50;;;12.73;;
78772;SDS011;68111;44.728;11.290;2023-06-04T05:27:32;19.95;;;13.45;;
78772;SDS011;68111;44.728;11.290;2023-06-04T05:29:59;18.08;;;12.90;;
78772;SDS011;68111;44.728;11.290;2023-06-04T05:32:28;18.17;;;10.93;;
78772;SDS011;68111;44.728;11.290;2023-06-04T05:34:56;16.40;;;12.27;;
78772;SDS011;68111;44.728;11.290;2023-06-04T05:37:28;16.55;;;13.20;;
78772;SDS011;68111;44.728;11.290;2023-06-04T05:39:56;21.05;;;13.20;;
78772;SDS011;68111;44.728;11.290;2023-06-04T05:42:23;16.63;;;13.30;;
78772;SDS011;68111;44.728;11.290;2023-06-04T05:44:50;19.23;;;13.27;;
78772;SDS011;68111;44.728;11.290;2023-06-04T05:47:20;18.05;;;12.60;;
78772;SDS011;68111;44.728;11.290;2023-06-04T05:49:47;17.25;;;12.80;;
78772;SDS011;68111;44.728;11.290;2023-06-04T05:52:14;18.67;;;13.15;;
78772;SDS011;68111;44.728;11.290;2023-06-04T05:54:43;19.80;;;14.63;;
78772;SDS011;68111;44.728;11.290;2023-06-04T05:57:10;19.48;;;13.50;;
78772;SDS011;68111;44.728;11.290;2023-06-04T05:59:36;18.27;;;13.68;;
78772;SDS011;68111;44.728;11.290;2023-06-04T06:02:07;20.42;;;13.25;;
78772;SDS011;68111;44.728;11.290;2023-06-04T06:04:35;19.13;;;12.50;;
78772;SDS011;68111;44.728;11.290;2023-06-04T06:07:02;18.50;;;12.80;;
78772;SDS011;68111;44.728;11.290;2023-06-04T06:09:29;17.95;;;12.90;;
78772;SDS011;68111;44.728;11.290;2023-06-04T06:11:55;20.58;;;13.05;;
78772;SDS011;68111;44.728;11.290;2023-06-04T06:14:22;17.50;;;12.65;;
78772;SDS011;68111;44.728;11.290;2023-06-04T06:16:50;18.55;;;12.00;;
78772;SDS011;68111;44.728;11.290;2023-06-04T06:19:17;17.52;;;12.85;;
78772;SDS011;68111;44.728;11.290;2023-06-04T06:21:44;19.55;;;12.25;;
78772;SDS011;68111;44.728;11.290;2023-06-04T06:24:12;16.23;;;10.80;;
78772;SDS011;68111;44.728;11.290;2023-06-04T06:26:39;19.58;;;12.25;;
78772;SDS011;68111;44.728;11.290;2023-06-04T06:29:08;18.50;;;11.75;;
78772;SDS011;68111;44.728;11.290;2023-06-04T06:31:35;16.98;;;10.93;;
78772;SDS011;68111;44.728;11.290;2023-06-04T06:34:02;15.77;;;11.40;;
78772;SDS011;68111;44.728;11.290;2023-06-04T06:36:29;18.08;;;11.50;;
78772;SDS011;68111;44.728;11.290;2023-06-04T06:38:56;18.05;;;12.40;;
78772;SDS011;68111;44.728;11.290;2023-06-04T06:41:22;16.23;;;12.18;;
78772;SDS011;68111;44.728;11.290;2023-06-04T06:43:49;17.02;;;11.50;;
78772;SDS011;68111;44.728;11.290;2023-06-04T06:46:17;13.60;;;10.52;;
78772;SDS011;68111;44.728;11.290;2023-06-04T06:48:43;22.23;;;15.18;;
78772;SDS011;68111;44.728;11.290;2023-06-04T06:51:12;16.83;;;12.63;;
78772;SDS011;68111;44.728;11.290;2023-06-04T06:53:38;15.77;;;11.68;;
78772;SDS011;68111;44.728;11.290;2023-06-04T06:56:06;13.20;;;9.88;;
78772;SDS011;68111;44.728;11.290;2023-06-04T06:58:33;13.07;;;9.65;;
78772;SDS011;68111;44.728;11.290;2023-06-04T07:01:00;14.38;;;10.27;;
78772;SDS011;68111;44.728;11.290;2023-06-04T07:03:27;16.77;;;12.88;;
78772;SDS011;68111;44.728;11.290;2023-06-04T07:05:54;17.58;;;13.43;;
78772;SDS011;68111;44.728;11.290;2023-06-04T07:08:21;17.63;;;12.20;;
78772;SDS011;68111;44.728;11.290;2023-06-04T07:10:48;15.65;;;11.57;;
78772;SDS011;68111;44.728;11.290;2023-06-04T07:13:14;17.67;;;11.63;;
78772;SDS011;68111;44.728;11.290;2023-06-04T07:15:42;17.58;;;13.63;;
78772;SDS011;68111;44.728;11.290;2023-06-04T07:18:08;16.65;;;12.45;;
78772;SDS011;68111;44.728;11.290;2023-06-04T07:20:35;15.75;;;12.10;;
78772;SDS011;68111;44.728;11.290;2023-06-04T07:23:02;14.38;;;11.60;;
78772;SDS011;68111;44.728;11.290;2023-06-04T07:25:29;16.08;;;12.63;;
78772;SDS011;68111;44.728;11.290;2023-06-04T07:27:56;18.30;;;11.00;;
78772;SDS011;68111;44.728;11.290;2023-06-04T07:30:25;18.90;;;13.68;;
78772;SDS011;68111;44.728;11.290;2023-06-04T07:32:52;11.35;;;9.52;;
78772;SDS011;68111;44.728;11.290;2023-06-04T07:35:19;16.92;;;11.90;;
78772;SDS011;68111;44.728;11.290;2023-06-04T07:37:46;16.50;;;12.00;;
78772;SDS011;68111;44.728;11.290;2023-06-04T07:40:15;15.15;;;12.10;;
78772;SDS011;68111;44.728;11.290;2023-06-04T07:42:42;17.08;;;13.43;;
78772;SDS011;68111;44.728;11.290;2023-06-04T07:45:13;16.08;;;11.82;;
78772;SDS011;68111;44.728;11.290;2023-06-04T07:47:42;16.55;;;12.85;;
78772;SDS011;68111;44.728;11.290;2023-06-04T07:50:10;13.80;;;9.73;;
78772;SDS011;68111;44.728;11.290;2023-06-04T07:52:36;14.82;;;10.23;;
78772;SDS011;68111;44.728;11.290;2023-06-04T07:55:03;14.40;;;12.00;;
78772;SDS011;68111;44.728;11.290;2023-06-04T07:57:31;17.90;;;13.30;;
78772;SDS011;68111;44.728;11.290;2023-06-04T07:59:58;16.75;;;12.82;;
78772;SDS011;68111;44.728;11.290;2023-06-04T08:02:25;15.80;;;12.07;;
78772;SDS011;68111;44.728;11.290;2023-06-04T08:04:52;16.90;;;12.80;;
78772;SDS011;68111;44.728;11.290;2023-06-04T08:07:19;18.58;;;14.48;;
78772;SDS011;68111;44.728;11.290;2023-06-04T08:09:46;19.30;;;13.35;;
78772;SDS011;68111;44.728;11.290;2023-06-04T08:12:12;14.68;;;10.75;;
78772;SDS011;68111;44.728;11.290;2023-06-04T08:14:39;20.05;;;12.88;;
78772;SDS011;68111;44.728;11.290;2023-06-04T08:17:06;16.58;;;12.77;;
78772;SDS011;68111;44.728;11.290;2023-06-04T08:19:33;20.17;;;16.20;;
78772;SDS011;68111;44.728;11.290;2023-06-04T08:22:00;16.58;;;13.52;;
78772;SDS011;68111;44.728;11.290;2023-06-04T08:24:26;17.98;;;14.45;;
78772;SDS011;68111;44.728;11.290;2023-06-04T08:26:53;17.95;;;14.00;;
78772;SDS011;68111;44.728;11.290;2023-06-04T08:29:20;18.02;;;13.73;;
78772;SDS011;68111;44.728;11.290;2023-06-04T08:31:46;19.65;;;13.00;;
78772;SDS011;68111;44.728;11.290;2023-06-04T08:34:13;19.23;;;14.55;;
78772;SDS011;68111;44.728;11.290;2023-06-04T08:36:40;14.95;;;12.15;;
78772;SDS011;68111;44.728;11.290;2023-06-04T08:39:07;18.52;;;12.60;;
78772;SDS011;68111;44.728;11.290;2023-06-04T08:41:37;15.52;;;12.13;;
78772;SDS011;68111;44.728;11.290;2023-06-04T08:44:09;14.10;;;10.68;;
78772;SDS011;68111;44.728;11.290;2023-06-04T08:46:40;19.48;;;13.40;;
78772;SDS011;68111;44.728;11.290;2023-06-04T08:49:07;20.38;;;13.38;;
78772;SDS011;68111;44.728;11.290;2023-06-04T08:51:35;18.08;;;13.40;;
78772;SDS011;68111;44.728;11.290;2023-06-04T08:54:07;18.08;;;14.07;;
78772;SDS011;68111;44.728;11.290;2023-06-04T08:56:36;19.15;;;14.48;;
78772;SDS011;68111;44.728;11.290;2023-06-04T08:59:04;18.55;;;15.00;;
78772;SDS011;68111;44.728;11.290;2023-06-04T09:01:35;18.05;;;14.15;;
78772;SDS011;68111;44.728;11.290;2023-06-04T09:04:04;18.38;;;14.45;;
78772;SDS011;68111;44.728;11.290;2023-06-04T09:06:36;17.77;;;12.93;;
78772;SDS011;68111;44.728;11.290;2023-06-04T09:09:05;14.50;;;11.73;;
78772;SDS011;68111;44.728;11.290;2023-06-04T09:11:38;16.33;;;11.50;;
78772;SDS011;68111;44.728;11.290;2023-06-04T09:14:08;14.90;;;11.20;;
78772;SDS011;68111;44.728;11.290;2023-06-04T09:16:52;17.45;;;12.15;;
78772;SDS011;68111;44.728;11.290;2023-06-04T09:19:21;12.95;;;10.13;;
78772;SDS011;68111;44.728;11.290;2023-06-04T09:21:49;13.00;;;8.98;;
78772;SDS011;68111;44.728;11.290;2023-06-04T09:24:21;12.73;;;10.25;;
78772;SDS011;68111;44.728;11.290;2023-06-04T09:26:48;11.32;;;8.93;;
78772;SDS011;68111;44.728;11.290;2023-06-04T09:29:16;12.70;;;8.60;;
78772;SDS011;68111;44.728;11.290;2023-06-04T09:31:44;12.77;;;8.90;;
78772;SDS011;68111;44.728;11.290;2023-06-04T09:34:13;12.13;;;8.90;;
78772;SDS011;68111;44.728;11.290;2023-06-04T09:36:41;15.05;;;9.13;;
78772;SDS011;68111;44.728;11.290;2023-06-04T09:39:15;14.32;;;9.07;;
78772;SDS011;68111;44.728;11.290;2023-06-04T09:41:42;13.10;;;10.18;;
78772;SDS011;68111;44.728;11.290;2023-06-04T09:44:09;14.25;;;9.13;;
78772;SDS011;68111;44.728;11.290;2023-06-04T09:46:39;12.23;;;8.95;;
78772;SDS011;68111;44.728;11.290;2023-06-04T09:49:06;12.30;;;8.30;;
78772;SDS011;68111;44.728;11.290;2023-06-04T09:51:33;13.65;;;8.88;;
78772;SDS011;68111;44.728;11.290;2023-06-04T09:54:00;12.73;;;8.65;;
78772;SDS011;68111;44.728;11.290;2023-06-04T09:56:28;12.20;;;8.93;;
78772;SDS011;68111;44.728;11.290;2023-06-04T09:58:59;10.20;;;6.57;;
78772;SDS011;68111;44.728;11.290;2023-06-04T10:01:29;11.18;;;7.32;;
78772;SDS011;68111;44.728;11.290;2023-06-04T10:03:57;10.38;;;8.32;;
78772;SDS011;68111;44.728;11.290;2023-06-04T10:06:32;10.93;;;8.23;;
78772;SDS011;68111;44.728;11.290;2023-06-04T10:09:03;10.57;;;7.35;;
78772;SDS011;68111;44.728;11.290;2023-06-04T10:11:34;13.88;;;9.02;;
78772;SDS011;68111;44.728;11.290;2023-06-04T10:14:06;13.40;;;9.50;;
78772;SDS011;68111;44.728;11.290;2023-06-04T10:16:48;12.43;;;8.32;;
78772;SDS011;68111;44.728;11.290;2023-06-04T10:19:16;13.43;;;9.18;;
78772;SDS011;68111;44.728;11.290;2023-06-04T10:21:44;12.02;;;8.55;;
78772;SDS011;68111;44.728;11.290;2023-06-04T10:24:12;11.15;;;7.78;;
78772;SDS011;68111;44.728;11.290;2023-06-04T10:26:40;12.98;;;8.45;;
78772;SDS011;68111;44.728;11.290;2023-06-04T10:29:08;9.93;;;6.85;;
78772;SDS011;68111;44.728;11.290;2023-06-04T10:31:38;9.52;;;7.30;;
78772;SDS011;68111;44.728;11.290;2023-06-04T10:34:04;12.18;;;8.55;;
78772;SDS011;68111;44.728;11.290;2023-06-04T10:36:41;8.18;;;6.40;;
78772;SDS011;68111;44.728;11.290;2023-06-04T10:39:09;12.23;;;8.57;;
78772;SDS011;68111;44.728;11.290;2023-06-04T10:41:36;11.85;;;8.50;;
78772;SDS011;68111;44.728;11.290;2023-06-04T10:44:03;11.05;;;9.00;;
78772;SDS011;68111;44.728;11.290;2023-06-04T10:46:38;11.48;;;7.53;;
78772;SDS011;68111;44.728;11.290;2023-06-04T10:49:09;10.70;;;7.97;;
78772;SDS011;68111;44.728;11.290;2023-06-04T10:51:41;10.45;;;6.35;;
78772;SDS011;68111;44.728;11.290;2023-06-04T10:54:10;9.55;;;7.00;;
78772;SDS011;68111;44.728;11.290;2023-06-04T10:56:37;11.02;;;7.70;;
78772;SDS011;68111;44.728;11.290;2023-06-04T10:59:13;11.77;;;7.35;;
78772;SDS011;68111;44.728;11.290;2023-06-04T11:01:41;8.73;;;6.20;;
78772;SDS011;68111;44.728;11.290;2023-06-04T11:04:21;8.57;;;6.43;;
78772;SDS011;68111;44.728;11.290;2023-06-04T11:07:02;6.90;;;5.35;;
78772;SDS011;68111;44.728;11.290;2023-06-04T11:09:31;8.18;;;5.90;;
78772;SDS011;68111;44.728;11.290;2023-06-04T11:12:00;9.00;;;6.78;;
78772;SDS011;68111;44.728;11.290;2023-06-04T11:14:28;9.95;;;6.40;;
78772;SDS011;68111;44.728;11.290;2023-06-04T11:16:55;12.60;;;6.90;;
78772;SDS011;68111;44.728;11.290;2023-06-04T11:19:22;11.43;;;6.90;;
78772;SDS011;68111;44.728;11.290;2023-06-04T11:21:49;8.57;;;6.10;;
78772;SDS011;68111;44.728;11.290;2023-06-04T11:24:16;11.15;;;6.60;;
78772;SDS011;68111;44.728;11.290;2023-06-04T11:26:43;9.57;;;6.30;;
78772;SDS011;68111;44.728;11.290;2023-06-04T11:29:25;8.65;;;6.75;;
78772;SDS011;68111;44.728;11.290;2023-06-04T11:31:54;9.63;;;6.72;;
78772;SDS011;68111;44.728;11.290;2023-06-04T11:34:27;9.80;;;6.78;;
78772;SDS011;68111;44.728;11.290;2023-06-04T11:36:55;8.57;;;6.78;;
78772;SDS011;68111;44.728;11.290;2023-06-04T11:39:22;11.90;;;7.75;;
78772;SDS011;68111;44.728;11.290;2023-06-04T11:41:50;10.77;;;7.32;;
78772;SDS011;68111;44.728;11.290;2023-06-04T11:44:18;10.48;;;7.38;;
78772;SDS011;68111;44.728;11.290;2023-06-04T11:46:46;9.02;;;6.07;;
78772;SDS011;68111;44.728;11.290;2023-06-04T11:49:15;10.02;;;6.30;;
78772;SDS011;68111;44.728;11.290;2023-06-04T11:51:49;9.88;;;6.75;;
78772;SDS011;68111;44.728;11.290;2023-06-04T11:54:17;8.00;;;5.82;;
78772;SDS011;68111;44.728;11.290;2023-06-04T11:56:45;8.00;;;5.55;;
78772;SDS011;68111;44.728;11.290;2023-06-04T11:59:15;7.53;;;5.35;;
78772;SDS011;68111;44.728;11.290;2023-06-04T12:01:43;9.85;;;6.57;;
78772;SDS011;68111;44.728;11.290;2023-06-04T12:04:17;10.55;;;6.55;;
78772;SDS011;68111;44.728;11.290;2023-06-04T12:06:55;10.40;;;6.72;;
78772;SDS011;68111;44.728;11.290;2023-06-04T12:09:31;9.02;;;6.25;;
78772;SDS011;68111;44.728;11.290;2023-06-04T12:12:02;9.70;;;5.72;;
78772;SDS011;68111;44.728;11.290;2023-06-04T12:14:29;10.02;;;7.15;;
78772;SDS011;68111;44.728;11.290;2023-06-04T12:16:57;10.43;;;6.60;;
78772;SDS011;68111;44.728;11.290;2023-06-04T12:19:26;10.80;;;6.68;;
78772;SDS011;68111;44.728;11.290;2023-06-04T12:22:03;11.40;;;6.07;;
78772;SDS011;68111;44.728;11.290;2023-06-04T12:24:33;9.57;;;6.28;;
78772;SDS011;68111;44.728;11.290;2023-06-04T12:27:07;10.73;;;6.70;;
78772;SDS011;68111;44.728;11.290;2023-06-04T12:29:35;9.15;;;6.18;;
78772;SDS011;68111;44.728;11.290;2023-06-04T12:32:05;9.85;;;6.65;;
78772;SDS011;68111;44.728;11.290;2023-06-04T12:34:38;9.70;;;6.30;;
78772;SDS011;68111;44.728;11.290;2023-06-04T12:37:06;8.80;;;6.50;;
78772;SDS011;68111;44.728;11.290;2023-06-04T12:39:34;8.80;;;6.32;;
78772;SDS011;68111;44.728;11.290;2023-06-04T12:42:05;8.80;;;6.20;;
78772;SDS011;68111;44.728;11.290;2023-06-04T12:44:33;7.07;;;5.15;;
78772;SDS011;68111;44.728;11.290;2023-06-04T12:47:01;9.95;;;6.60;;
78772;SDS011;68111;44.728;11.290;2023-06-04T12:49:29;8.82;;;6.32;;
78772;SDS011;68111;44.728;11.290;2023-06-04T12:51:56;9.32;;;6.20;;
78772;SDS011;68111;44.728;11.290;2023-06-04T12:54:22;8.65;;;5.75;;
78772;SDS011;68111;44.728;11.290;2023-06-04T12:56:49;10.45;;;6.85;;
78772;SDS011;68111;44.728;11.290;2023-06-04T12:59:16;10.30;;;6.28;;
78772;SDS011;68111;44.728;11.290;2023-06-04T13:01:43;9.13;;;6.22;;
78772;SDS011;68111;44.728;11.290;2023-06-04T13:04:10;9.82;;;7.07;;
78772;SDS011;68111;44.728;11.290;2023-06-04T13:06:37;8.43;;;6.70;;
78772;SDS011;68111;44.728;11.290;2023-06-04T13:09:05;8.75;;;6.68;;
78772;SDS011;68111;44.728;11.290;2023-06-04T13:11:38;9.35;;;6.85;;
78772;SDS011;68111;44.728;11.290;2023-06-04T13:14:05;8.18;;;6.03;;
78772;SDS011;68111;44.728;11.290;2023-06-04T13:16:33;10.52;;;6.18;;
78772;SDS011;68111;44.728;11.290;2023-06-04T13:19:00;10.98;;;6.35;;
78772;SDS011;68111;44.728;11.290;2023-06-04T13:21:27;9.07;;;6.50;;
78772;SDS011;68111;44.728;11.290;2023-06-04T13:23:54;11.10;;;6.10;;
78772;SDS011;68111;44.728;11.290;2023-06-04T13:26:22;9.65;;;5.40;;
78772;SDS011;68111;44.728;11.290;2023-06-04T13:28:49;9.50;;;5.78;;
78772;SDS011;68111;44.728;11.290;2023-06-04T13:31:16;7.70;;;5.43;;
78772;SDS011;68111;44.728;11.290;2023-06-04T13:33:42;7.72;;;5.45;;
78772;SDS011;68111;44.728;11.290;2023-06-04T13:36:10;7.35;;;5.47;;
78772;SDS011;68111;44.728;11.290;2023-06-04T13:38:36;7.03;;;4.95;;
78772;SDS011;68111;44.728;11.290;2023-06-04T13:41:03;8.65;;;5.60;;
78772;SDS011;68111;44.728;11.290;2023-06-04T13:43:30;8.75;;;6.13;;
78772;SDS011;68111;44.728;11.290;2023-06-04T13:45:57;10.05;;;5.00;;
78772;SDS011;68111;44.728;11.290;2023-06-04T13:48:23;9.20;;;5.90;;
78772;SDS011;68111;44.728;11.290;2023-06-04T13:50:50;9.50;;;6.20;;
78772;SDS011;68111;44.728;11.290;2023-06-04T13:53:17;8.95;;;5.72;;
78772;SDS011;68111;44.728;11.290;2023-06-04T13:55:43;9.25;;;5.82;;
78772;SDS011;68111;44.728;11.290;2023-06-04T13:58:10;8.05;;;5.25;;
78772;SDS011;68111;44.728;11.290;2023-06-04T14:00:37;6.90;;;4.90;;
78772;SDS011;68111;44.728;11.290;2023-06-04T14:03:04;9.13;;;5.50;;
78772;SDS011;68111;44.728;11.290;2023-06-04T14:05:31;9.95;;;5.97;;
78772;SDS011;68111;44.728;11.290;2023-06-04T14:07:57;7.85;;;5.15;;
78772;SDS011;68111;44.728;11.290;2023-06-04T14:10:24;8.80;;;5.65;;
78772;SDS011;68111;44.728;11.290;2023-06-04T14:12:51;8.50;;;5.70;;
78772;SDS011;68111;44.728;11.290;2023-06-04T14:15:18;7.32;;;5.20;;
78772;SDS011;68111;44.728;11.290;2023-06-04T14:17:44;6.85;;;4.80;;
78772;SDS011;68111;44.728;11.290;2023-06-04T14:20:11;8.40;;;5.57;;
78772;SDS011;68111;44.728;11.290;2023-06-04T14:22:38;7.88;;;5.30;;
78772;SDS011;68111;44.728;11.290;2023-06-04T14:25:06;8.80;;;5.68;;
78772;SDS011;68111;44.728;11.290;2023-06-04T14:27:34;8.30;;;5.95;;
78772;SDS011;68111;44.728;11.290;2023-06-04T14:30:02;10.18;;;5.45;;
78772;SDS011;68111;44.728;11.290;2023-06-04T14:32:30;8.88;;;5.80;;
78772;SDS011;68111;44.728;11.290;2023-06-04T14:34:58;10.32;;;6.35;;